Time;durP1;ratioP1;P1;durP2;ratioP2;P2;SDS_P1;SDS_P2;PMS_P1;PMS_P2;Temp;Humidity;BMP_temperature;BMP_pressure;BME280_temperature;BME280_humidity;BME280_pressure;Samples;Min_cycle;Max_cycle;Signal;HPM_P1;HPM_P2
2022/06/15 00:00:39;;;;;;;6.68;2.20;;;;;;;;;;4974591;28;20559;-75
2022/06/15 00:03:04;;;;;;;3.28;2.25;;;;;;;;;;4974523;28;20031;-76
2022/06/15 00:05:30;;;;;;;8.27;2.30;;;;;;;;;;4957036;28;20027;-75
2022/06/15 00:07:55;;;;;;;4.00;2.28;;;;;;;;;;4974483;28;20077;-76
2022/06/15 00:10:21;;;;;;;5.18;2.53;;;;;;;;;;4974360;28;20070;-76
2022/06/15 00:12:46;;;;;;;3.15;2.00;;;;;;;;;;4974423;28;20045;-76
2022/06/15 00:15:13;;;;;;;6.40;2.38;;;;;;;;;;4974596;28;20043;-75
2022/06/15 00:17:38;;;;;;;3.78;2.15;;;;;;;;;;4974362;28;20484;-75
2022/06/15 00:20:04;;;;;;;5.97;2.30;;;;;;;;;;4974587;28;20057;-76
2022/06/15 00:22:29;;;;;;;3.83;2.35;;;;;;;;;;4974745;28;20023;-76
2022/06/15 00:24:54;;;;;;;3.87;2.40;;;;;;;;;;4974347;28;20026;-75
2022/06/15 00:27:20;;;;;;;5.30;2.40;;;;;;;;;;4974861;28;20261;-75
2022/06/15 00:29:45;;;;;;;4.93;2.22;;;;;;;;;;4978356;28;20272;-76
2022/06/15 00:32:11;;;;;;;6.53;2.70;;;;;;;;;;4978727;28;20046;-75
2022/06/15 00:34:37;;;;;;;4.18;2.30;;;;;;;;;;4978568;28;20265;-75
2022/06/15 00:37:03;;;;;;;5.47;2.30;;;;;;;;;;4978609;28;20035;-75
2022/06/15 00:39:28;;;;;;;4.60;2.50;;;;;;;;;;4960903;28;20033;-76
2022/06/15 00:41:54;;;;;;;3.43;2.20;;;;;;;;;;4978079;28;20105;-74
2022/06/15 00:44:19;;;;;;;5.23;2.60;;;;;;;;;;4977888;28;20364;-75
2022/06/15 00:46:48;;;;;;;4.77;2.40;;;;;;;;;;4978131;28;20288;-76
2022/06/15 00:49:24;;;;;;;4.00;2.20;;;;;;;;;;4978274;28;20035;-75
2022/06/15 00:51:57;;;;;;;3.85;2.22;;;;;;;;;;4977957;28;20033;-75
2022/06/15 00:54:24;;;;;;;3.58;2.38;;;;;;;;;;4977735;28;20086;-74
2022/06/15 00:56:51;;;;;;;5.43;2.50;;;;;;;;;;4978524;28;20027;-76
2022/06/15 00:59:24;;;;;;;4.25;2.67;;;;;;;;;;4978242;28;20023;-76
2022/06/15 01:01:50;;;;;;;6.18;2.50;;;;;;;;;;4960414;28;20031;-75
2022/06/15 01:04:19;;;;;;;4.97;2.70;;;;;;;;;;4977531;28;20034;-75
2022/06/15 01:06:51;;;;;;;8.88;2.70;;;;;;;;;;4977890;28;20019;-75
2022/06/15 01:09:29;;;;;;;3.35;2.38;;;;;;;;;;4977864;28;20038;-76
2022/06/15 01:11:58;;;;;;;3.50;2.47;;;;;;;;;;4977700;28;20026;-75
2022/06/15 01:14:43;;;;;;;5.07;2.78;;;;;;;;;;4977370;28;20023;-75
2022/06/15 01:17:29;;;;;;;5.68;2.40;;;;;;;;;;4960239;28;20022;-75
2022/06/15 01:20:15;;;;;;;7.60;2.42;;;;;;;;;;4977731;28;20035;-76
2022/06/15 01:22:57;;;;;;;3.60;2.50;;;;;;;;;;4977294;28;20033;-76
2022/06/15 01:25:46;;;;;;;4.65;2.90;;;;;;;;;;4977578;28;20026;-75
2022/06/15 01:28:30;;;;;;;4.45;2.47;;;;;;;;;;4977806;28;20058;-74
2022/06/15 01:31:13;;;;;;;7.57;2.65;;;;;;;;;;4977242;28;20077;-76
2022/06/15 01:34:02;;;;;;;4.50;2.90;;;;;;;;;;4977270;28;20030;-74
2022/06/15 01:36:52;;;;;;;3.83;2.50;;;;;;;;;;4977341;28;20392;-77
2022/06/15 01:39:32;;;;;;;5.93;2.40;;;;;;;;;;4958844;28;20032;-76
2022/06/15 01:42:04;;;;;;;10.18;2.55;;;;;;;;;;4977053;28;20026;-77
2022/06/15 01:44:36;;;;;;;3.95;2.35;;;;;;;;;;4977511;28;20027;-76
2022/06/15 01:47:05;;;;;;;6.72;2.35;;;;;;;;;;4977351;28;20031;-76
2022/06/15 01:49:37;;;;;;;6.35;2.78;;;;;;;;;;4976933;28;20034;-76
2022/06/15 01:52:04;;;;;;;6.03;2.25;;;;;;;;;;4976984;28;20110;-76
2022/06/15 01:54:36;;;;;;;9.23;2.53;;;;;;;;;;4976608;28;20035;-76
2022/06/15 01:57:04;;;;;;;5.30;2.67;;;;;;;;;;4976801;28;20023;-76
2022/06/15 01:59:44;;;;;;;5.68;2.60;;;;;;;;;;4976757;28;20507;-76
2022/06/15 02:02:13;;;;;;;5.53;2.70;;;;;;;;;;4964887;28;20085;-76
2022/06/15 02:05:05;;;;;;;5.45;2.63;;;;;;;;;;4988067;28;20031;-74
2022/06/15 02:07:42;;;;;;;4.50;2.33;;;;;;;;;;4987713;28;20057;-75
2022/06/15 02:10:15;;;;;;;5.30;2.60;;;;;;;;;;4986925;28;20030;-74
2022/06/15 02:12:49;;;;;;;4.22;2.28;;;;;;;;;;4970292;28;20037;-75
2022/06/15 02:15:15;;;;;;;;;;;;;;;;;;4987576;28;20058;-76
2022/06/15 02:17:46;;;;;;;4.13;2.30;;;;;;;;;;4986966;28;19910;-76
2022/06/15 02:20:26;;;;;;;7.07;2.70;;;;;;;;;;4987663;28;20033;-75
2022/06/15 02:22:54;;;;;;;4.20;2.72;;;;;;;;;;4971820;28;20037;-75
2022/06/15 02:25:24;;;;;;;5.25;2.47;;;;;;;;;;4986800;28;20023;-75
2022/06/15 02:27:51;;;;;;;7.72;2.60;;;;;;;;;;4976416;28;20034;-75
2022/06/15 02:30:21;;;;;;;4.63;2.78;;;;;;;;;;4976530;28;20439;-78
2022/06/15 02:32:49;;;;;;;5.82;2.97;;;;;;;;;;4976173;28;20109;-76
2022/06/15 02:35:17;;;;;;;5.18;2.65;;;;;;;;;;4975546;28;20034;-76
2022/06/15 02:37:44;;;;;;;5.75;2.80;;;;;;;;;;4975109;28;20063;-76
2022/06/15 02:40:13;;;;;;;5.55;2.70;;;;;;;;;;4975956;28;20049;-75
2022/06/15 02:42:40;;;;;;;4.57;2.80;;;;;;;;;;4976225;28;20026;-76
2022/06/15 02:45:10;;;;;;;6.55;2.47;;;;;;;;;;4976186;28;20026;-76
2022/06/15 02:47:40;;;;;;;4.32;2.50;;;;;;;;;;4976087;28;20033;-76
2022/06/15 02:50:06;;;;;;;4.43;2.40;;;;;;;;;;4958434;28;20031;-76
2022/06/15 02:52:38;;;;;;;4.35;2.60;;;;;;;;;;4975671;28;20038;-75
2022/06/15 02:55:05;;;;;;;7.70;3.05;;;;;;;;;;4975859;28;20041;-76
2022/06/15 02:57:30;;;;;;;6.93;3.08;;;;;;;;;;4975621;28;20030;-75
2022/06/15 02:59:56;;;;;;;6.22;2.65;;;;;;;;;;4975851;28;20479;-75
2022/06/15 03:02:21;;;;;;;5.50;3.10;;;;;;;;;;4975597;28;20057;-75
2022/06/15 03:04:48;;;;;;;6.22;3.00;;;;;;;;;;4975291;28;20089;-76
2022/06/15 03:07:14;;;;;;;8.15;2.80;;;;;;;;;;4975726;28;20508;-76
2022/06/15 03:09:40;;;;;;;4.97;2.92;;;;;;;;;;4975425;28;20035;-77
2022/06/15 03:12:07;;;;;;;6.80;2.65;;;;;;;;;;4975493;28;20026;-77
2022/06/15 03:14:33;;;;;;;6.28;2.80;;;;;;;;;;4975517;28;20023;-75
2022/06/15 03:16:58;;;;;;;4.93;2.80;;;;;;;;;;4975560;28;20480;-75
2022/06/15 03:19:24;;;;;;;4.53;2.60;;;;;;;;;;4975258;28;20027;-75
2022/06/15 03:21:49;;;;;;;6.97;3.08;;;;;;;;;;4958076;28;20034;-76
2022/06/15 03:24:14;;;;;;;8.85;2.85;;;;;;;;;;4974916;28;20027;-75
2022/06/15 03:26:39;;;;;;;4.82;2.70;;;;;;;;;;4957631;28;20022;-74
2022/06/15 03:29:06;;;;;;;3.88;2.70;;;;;;;;;;4975301;28;20396;-76
2022/06/15 03:31:31;;;;;;;5.70;2.80;;;;;;;;;;4975455;28;20031;-75
2022/06/15 03:33:56;;;;;;;6.07;2.95;;;;;;;;;;4958066;28;20456;-75
2022/06/15 03:36:22;;;;;;;5.27;2.60;;;;;;;;;;4974894;28;20441;-76
2022/06/15 03:38:47;;;;;;;5.20;2.72;;;;;;;;;;4957602;28;20653;-74
2022/06/15 03:41:13;;;;;;;4.50;2.47;;;;;;;;;;4974786;28;20481;-74
2022/06/15 03:43:39;;;;;;;5.55;2.88;;;;;;;;;;4974617;28;20026;-76
2022/06/15 03:46:04;;;;;;;7.28;2.80;;;;;;;;;;4957410;28;20114;-75
2022/06/15 03:48:29;;;;;;;4.70;2.37;;;;;;;;;;4974679;28;20058;-75
2022/06/15 03:50:54;;;;;;;6.82;2.58;;;;;;;;;;4974648;28;20260;-75
2022/06/15 03:53:20;;;;;;;6.67;2.60;;;;;;;;;;4974521;28;20404;-75
2022/06/15 03:55:45;;;;;;;5.32;2.47;;;;;;;;;;4974610;28;20626;-75
2022/06/15 03:58:17;;;;;;;4.63;2.60;;;;;;;;;;4974569;28;20109;-76
2022/06/15 04:00:43;;;;;;;4.15;2.38;;;;;;;;;;4957169;28;20027;-74
2022/06/15 04:03:08;;;;;;;9.00;2.60;;;;;;;;;;4974223;28;20027;-75
2022/06/15 04:05:54;;;;;;;3.90;2.60;;;;;;;;;;4957120;28;20022;-76
2022/06/15 04:08:34;;;;;;;7.55;2.67;;;;;;;;;;4974562;28;20030;-75
2022/06/15 04:13:58;;;;;;;5.22;2.58;;;;;;;;;;4980148;28;20077;-76
2022/06/15 04:16:23;;;;;;;6.68;2.60;;;;;;;;;;4982225;28;20031;-77
2022/06/15 04:18:48;;;;;;;6.80;2.58;;;;;;;;;;4981550;28;20034;-76
2022/06/15 04:21:13;;;;;;;5.50;2.70;;;;;;;;;;4959033;28;20511;-76
2022/06/15 04:23:39;;;;;;;3.60;2.40;;;;;;;;;;4974939;28;20758;-76
2022/06/15 04:26:04;;;;;;;4.93;2.47;;;;;;;;;;4974575;28;20773;-76
2022/06/15 04:28:32;;;;;;;6.93;2.47;;;;;;;;;;4974511;28;20756;-75
2022/06/15 04:30:57;;;;;;;8.05;2.58;;;;;;;;;;4974257;28;20404;-76
2022/06/15 04:33:24;;;;;;;9.98;2.60;;;;;;;;;;4974132;28;20030;-76
2022/06/15 04:35:50;;;;;;;5.43;2.67;;;;;;;;;;4956911;28;20026;-76
2022/06/15 04:38:15;;;;;;;5.43;2.35;;;;;;;;;;4974276;28;20029;-76
2022/06/15 04:40:41;;;;;;;6.33;2.67;;;;;;;;;;4974181;28;20114;-75
2022/06/15 04:43:08;;;;;;;5.35;2.80;;;;;;;;;;4973992;28;20320;-76
2022/06/15 04:45:35;;;;;;;5.65;2.30;;;;;;;;;;4974114;28;20138;-76
2022/06/15 04:48:00;;;;;;;6.03;2.65;;;;;;;;;;4956692;28;20089;-76
2022/06/15 04:50:25;;;;;;;6.05;2.58;;;;;;;;;;4974021;28;20484;-76
2022/06/15 04:52:50;;;;;;;5.47;2.53;;;;;;;;;;4973669;28;20033;-74
2022/06/15 04:55:19;;;;;;;4.93;2.50;;;;;;;;;;4957442;28;20284;-75
2022/06/15 04:57:45;;;;;;;6.70;2.65;;;;;;;;;;4973997;28;20034;-77
2022/06/15 05:00:16;;;;;;;7.07;2.55;;;;;;;;;;4973926;28;20027;-75
2022/06/15 05:02:42;;;;;;;5.60;2.30;;;;;;;;;;4956448;28;20077;-76
2022/06/15 05:05:07;;;;;;;7.28;2.75;;;;;;;;;;4973863;28;20022;-76
2022/06/15 05:07:32;;;;;;;9.57;2.88;;;;;;;;;;4974091;28;20113;-76
2022/06/15 05:09:58;;;;;;;5.20;2.50;;;;;;;;;;4973791;28;20045;-76
2022/06/15 05:12:23;;;;;;;8.48;2.53;;;;;;;;;;4974130;28;20026;-76
2022/06/15 05:14:49;;;;;;;3.72;2.30;;;;;;;;;;4975239;28;20042;-76
2022/06/15 05:17:15;;;;;;;3.22;2.20;;;;;;;;;;4977551;28;20150;-77
2022/06/15 05:19:40;;;;;;;4.15;2.10;;;;;;;;;;4960505;28;20029;-75
2022/06/15 05:22:06;;;;;;;5.60;2.60;;;;;;;;;;4960027;28;20396;-76
2022/06/15 05:24:31;;;;;;;5.20;2.43;;;;;;;;;;4977205;28;20693;-76
2022/06/15 05:26:56;;;;;;;8.68;2.58;;;;;;;;;;4977174;28;20734;-75
2022/06/15 05:29:22;;;;;;;8.77;2.53;;;;;;;;;;4977485;28;20035;-74
2022/06/15 05:31:48;;;;;;;5.68;2.50;;;;;;;;;;4977126;28;20019;-76
2022/06/15 05:34:14;;;;;;;9.43;2.42;;;;;;;;;;4976964;28;20029;-75
2022/06/15 05:36:39;;;;;;;4.60;2.42;;;;;;;;;;4976893;28;20109;-76
2022/06/15 05:39:05;;;;;;;4.63;2.25;;;;;;;;;;4977485;28;20053;-75
2022/06/15 05:41:30;;;;;;;9.45;2.20;;;;;;;;;;4976927;28;20045;-75
2022/06/15 05:44:01;;;;;;;5.32;2.50;;;;;;;;;;4976684;28;20038;-76
2022/06/15 05:46:31;;;;;;;6.18;2.50;;;;;;;;;;4976544;28;20507;-76
2022/06/15 05:48:58;;;;;;;6.97;2.38;;;;;;;;;;4976949;28;20121;-76
2022/06/15 05:51:23;;;;;;;6.70;2.10;;;;;;;;;;4976883;28;20034;-77
2022/06/15 05:53:49;;;;;;;6.15;2.25;;;;;;;;;;4976686;28;20031;-75
2022/06/15 05:56:15;;;;;;;6.20;2.15;;;;;;;;;;4976749;28;20067;-73
2022/06/15 05:58:40;;;;;;;7.55;2.28;;;;;;;;;;4976733;28;20041;-77
2022/06/15 06:01:20;;;;;;;7.97;2.40;;;;;;;;;;4959252;28;20381;-74
2022/06/15 06:03:45;;;;;;;4.28;2.10;;;;;;;;;;4976460;28;20035;-75
2022/06/15 06:06:11;;;;;;;7.73;2.17;;;;;;;;;;4976521;28;20031;-76
2022/06/15 06:08:36;;;;;;;4.10;1.92;;;;;;;;;;4976284;28;20302;-77
2022/06/15 06:11:02;;;;;;;5.85;2.22;;;;;;;;;;4976364;28;20152;-75
2022/06/15 06:13:28;;;;;;;8.68;2.13;;;;;;;;;;4976749;28;20105;-76
2022/06/15 06:15:55;;;;;;;5.22;2.22;;;;;;;;;;4976673;28;20037;-77
2022/06/15 06:18:20;;;;;;;4.63;2.10;;;;;;;;;;4976398;28;20019;-75
2022/06/15 06:20:50;;;;;;;5.53;1.98;;;;;;;;;;4958783;28;20034;-75
2022/06/15 06:23:18;;;;;;;3.40;1.88;;;;;;;;;;4976097;28;20077;-76
2022/06/15 06:25:46;;;;;;;6.43;1.83;;;;;;;;;;4975899;28;20023;-75
2022/06/15 06:28:26;;;;;;;3.65;1.85;;;;;;;;;;4976074;28;20523;-76
2022/06/15 06:30:52;;;;;;;5.60;2.13;;;;;;;;;;4976152;28;20499;-74
2022/06/15 06:33:17;;;;;;;4.35;1.77;;;;;;;;;;4976021;28;20027;-75
2022/06/15 06:35:44;;;;;;;3.53;1.70;;;;;;;;;;4976208;28;20393;-75
2022/06/15 06:38:11;;;;;;;3.55;1.73;;;;;;;;;;4958475;28;20675;-75
2022/06/15 06:40:36;;;;;;;2.95;1.65;;;;;;;;;;4976198;28;20488;-75
2022/06/15 06:43:02;;;;;;;7.45;1.70;;;;;;;;;;4958425;28;20069;-76
2022/06/15 06:45:27;;;;;;;5.15;1.60;;;;;;;;;;4958441;28;20022;-75
2022/06/15 06:47:53;;;;;;;5.28;1.50;;;;;;;;;;4975628;28;20488;-75
2022/06/15 06:50:18;;;;;;;5.18;1.55;;;;;;;;;;4958429;28;20049;-76
2022/06/15 06:52:43;;;;;;;3.65;1.60;;;;;;;;;;4975868;28;20038;-76
2022/06/15 06:55:09;;;;;;;3.72;1.58;;;;;;;;;;4958287;28;20022;-75
2022/06/15 06:57:34;;;;;;;7.10;1.52;;;;;;;;;;4975515;28;20460;-74
2022/06/15 06:59:59;;;;;;;4.10;1.60;;;;;;;;;;4976102;28;20499;-75
2022/06/15 07:02:27;;;;;;;3.30;1.60;;;;;;;;;;4975733;28;20269;-74
2022/06/15 07:04:52;;;;;;;5.10;1.70;;;;;;;;;;4958399;28;20331;-74
2022/06/15 07:07:17;;;;;;;5.73;1.67;;;;;;;;;;4974777;28;20043;-74
2022/06/15 07:09:43;;;;;;;8.48;1.90;;;;;;;;;;4975381;28;20261;-76
2022/06/15 07:12:10;;;;;;;5.23;1.40;;;;;;;;;;4975613;28;20421;-76
2022/06/15 07:14:36;;;;;;;3.72;1.35;;;;;;;;;;4957764;28;20253;-75
2022/06/15 07:17:01;;;;;;;7.40;1.47;;;;;;;;;;4975412;28;20037;-75
2022/06/15 07:19:26;;;;;;;4.18;1.75;;;;;;;;;;4975369;28;20300;-76
2022/06/15 07:21:51;;;;;;;3.37;1.43;;;;;;;;;;4975415;28;20026;-76
2022/06/15 07:24:17;;;;;;;6.00;1.50;;;;;;;;;;4975540;28;20031;-75
2022/06/15 07:26:47;;;;;;;7.10;1.45;;;;;;;;;;4975085;28;20034;-76
2022/06/15 07:29:14;;;;;;;5.95;1.52;;;;;;;;;;4975299;28;20023;-75
2022/06/15 07:31:42;;;;;;;3.78;1.42;;;;;;;;;;4957493;28;20167;-75
2022/06/15 07:34:08;;;;;;;5.82;1.35;;;;;;;;;;4974950;28;20025;-75
2022/06/15 07:36:35;;;;;;;3.35;1.45;;;;;;;;;;4957377;28;20404;-76
2022/06/15 07:39:01;;;;;;;3.92;1.40;;;;;;;;;;4974695;28;20023;-76
2022/06/15 07:41:27;;;;;;;3.90;1.58;;;;;;;;;;4974845;28;20106;-76
2022/06/15 07:43:53;;;;;;;5.43;1.40;;;;;;;;;;4974513;28;20121;-75
2022/06/15 07:46:19;;;;;;;3.92;1.30;;;;;;;;;;4974805;28;20037;-75
2022/06/15 07:51:32;;;;;;;;;;;;;;;;;;4975306;28;20037;-76
2022/06/15 07:53:59;;;;;;;4.25;1.55;;;;;;;;;;4974610;28;19920;-74
2022/06/15 07:56:25;;;;;;;6.05;1.40;;;;;;;;;;4975443;28;20030;-73
2022/06/15 07:58:50;;;;;;;3.67;1.40;;;;;;;;;;4974754;28;20126;-74
2022/06/15 08:01:16;;;;;;;7.30;1.50;;;;;;;;;;4975164;28;20484;-74
2022/06/15 08:03:41;;;;;;;4.05;1.52;;;;;;;;;;4957646;28;20327;-76
2022/06/15 08:06:06;;;;;;;3.87;1.27;;;;;;;;;;4975171;28;20030;-77
2022/06/15 08:08:32;;;;;;;5.35;1.65;;;;;;;;;;4974915;28;20292;-76
2022/06/15 08:10:57;;;;;;;3.63;1.55;;;;;;;;;;4974561;28;20035;-76
2022/06/15 08:13:22;;;;;;;3.80;1.40;;;;;;;;;;4974750;28;20018;-75
2022/06/15 08:15:54;;;;;;;3.85;1.40;;;;;;;;;;4957236;28;20080;-76
2022/06/15 08:18:23;;;;;;;2.72;1.50;;;;;;;;;;4974596;28;20034;-74
2022/06/15 08:21:02;;;;;;;3.03;1.35;;;;;;;;;;4957089;28;20495;-76
2022/06/15 08:23:33;;;;;;;4.05;1.25;;;;;;;;;;4957577;28;20499;-75
2022/06/15 08:26:02;;;;;;;4.63;1.60;;;;;;;;;;4974698;28;20031;-78
2022/06/15 08:28:32;;;;;;;3.25;1.40;;;;;;;;;;4974508;28;20619;-73
2022/06/15 08:30:57;;;;;;;4.95;1.38;;;;;;;;;;4974628;28;20408;-73
2022/06/15 08:33:23;;;;;;;2.42;1.30;;;;;;;;;;4974281;28;20027;-73
2022/06/15 08:35:50;;;;;;;3.78;1.38;;;;;;;;;;4974745;28;20105;-75
2022/06/15 08:38:17;;;;;;;5.50;1.40;;;;;;;;;;4974328;28;20551;-77
2022/06/15 08:40:53;;;;;;;3.28;1.30;;;;;;;;;;4974541;28;20051;-75
2022/06/15 08:43:47;;;;;;;3.22;1.42;;;;;;;;;;4973972;28;20421;-76
2022/06/15 08:46:50;;;;;;;6.25;1.58;;;;;;;;;;4974526;28;20046;-75
2022/06/15 08:49:28;;;;;;;5.35;1.40;;;;;;;;;;4976531;28;20106;-75
2022/06/15 08:51:58;;;;;;;8.40;1.45;;;;;;;;;;4978176;28;20041;-75
2022/06/15 08:54:34;;;;;;;6.97;1.20;;;;;;;;;;4977834;28;20480;-75
2022/06/15 08:57:23;;;;;;;4.43;1.55;;;;;;;;;;4960700;28;20030;-75
2022/06/15 08:59:59;;;;;;;7.30;1.63;;;;;;;;;;4978231;28;20489;-76
2022/06/15 09:02:52;;;;;;;4.95;1.40;;;;;;;;;;4978192;28;20496;-76
2022/06/15 09:05:53;;;;;;;2.97;1.33;;;;;;;;;;4977972;28;20507;-75
2022/06/15 09:08:27;;;;;;;5.63;1.20;;;;;;;;;;4978487;28;20037;-76
2022/06/15 09:11:21;;;;;;;4.88;1.23;;;;;;;;;;4960639;28;20118;-77
2022/06/15 09:14:07;;;;;;;1.58;1.15;;;;;;;;;;4977975;28;20113;-75
2022/06/15 09:16:49;;;;;;;2.70;1.10;;;;;;;;;;4977711;28;20531;-76
2022/06/15 09:19:22;;;;;;;3.78;1.20;;;;;;;;;;4977705;28;20037;-76
2022/06/15 09:21:57;;;;;;;9.23;1.30;;;;;;;;;;4978282;28;20031;-76
2022/06/15 09:24:25;;;;;;;2.78;1.20;;;;;;;;;;4977729;28;20042;-76
2022/06/15 09:26:54;;;;;;;3.53;1.38;;;;;;;;;;4960097;28;20023;-75
2022/06/15 09:29:35;;;;;;;4.60;1.20;;;;;;;;;;4977184;28;20543;-76
2022/06/15 09:32:07;;;;;;;3.80;1.67;;;;;;;;;;4977634;28;20037;-76
2022/06/15 09:34:36;;;;;;;3.13;1.40;;;;;;;;;;4977479;28;20022;-75
2022/06/15 09:37:05;;;;;;;3.28;1.45;;;;;;;;;;4977516;28;20469;-75
2022/06/15 09:39:32;;;;;;;4.10;1.27;;;;;;;;;;4977163;28;20113;-76
2022/06/15 09:42:07;;;;;;;4.63;1.30;;;;;;;;;;4977161;28;20026;-75
2022/06/15 09:44:48;;;;;;;4.13;1.60;;;;;;;;;;4976974;28;20035;-77
2022/06/15 09:47:32;;;;;;;3.10;1.35;;;;;;;;;;4977280;28;20038;-76
2022/06/15 09:50:11;;;;;;;4.88;1.30;;;;;;;;;;4959720;28;20019;-77
2022/06/15 09:52:36;;;;;;;4.45;1.40;;;;;;;;;;4977149;28;20027;-75
2022/06/15 09:55:07;;;;;;;9.70;1.63;;;;;;;;;;4976922;28;20050;-75
2022/06/15 09:57:33;;;;;;;4.05;1.30;;;;;;;;;;4959394;28;20042;-77
2022/06/15 10:00:02;;;;;;;3.78;1.30;;;;;;;;;;4976140;28;20495;-75
2022/06/15 10:02:34;;;;;;;4.65;1.50;;;;;;;;;;4976703;28;20031;-74
2022/06/15 10:05:01;;;;;;;3.38;1.50;;;;;;;;;;4976884;28;20033;-75
2022/06/15 10:07:32;;;;;;;2.08;1.30;;;;;;;;;;4976649;28;20042;-76
2022/06/15 10:10:21;;;;;;;4.18;1.40;;;;;;;;;;4976663;28;20559;-77
2022/06/15 10:12:59;;;;;;;3.58;1.52;;;;;;;;;;4959306;28;20062;-75
2022/06/15 10:15:31;;;;;;;2.60;1.50;;;;;;;;;;4976379;28;20025;-77
2022/06/15 10:18:00;;;;;;;4.65;1.50;;;;;;;;;;4959000;28;20381;-76
2022/06/15 10:20:33;;;;;;;8.93;1.48;;;;;;;;;;4976270;28;20030;-75
2022/06/15 10:23:03;;;;;;;3.97;1.27;;;;;;;;;;4976088;28;20022;-75
2022/06/15 10:25:33;;;;;;;3.72;1.40;;;;;;;;;;4976323;28;20492;-76
2022/06/15 10:28:15;;;;;;;4.93;1.52;;;;;;;;;;4976679;28;20039;-75
2022/06/15 10:30:52;;;;;;;2.83;1.40;;;;;;;;;;4958959;28;20055;-76
2022/06/15 10:33:19;;;;;;;2.83;1.30;;;;;;;;;;4958992;28;20137;-77
2022/06/15 10:35:53;;;;;;;3.55;1.45;;;;;;;;;;4976272;28;20026;-77
2022/06/15 10:38:18;;;;;;;5.43;1.23;;;;;;;;;;4976391;28;20032;-76
2022/06/15 10:41:45;;;;;;;3.20;1.40;;;;;;;;;;4976429;28;20186;-76
2022/06/15 10:43:45;;;;;;;6.80;1.52;;;;;;;;;;4975854;28;20038;-76
2022/06/15 10:46:10;;;;;;;4.80;1.58;;;;;;;;;;4976262;28;20480;-77
2022/06/15 10:48:42;;;;;;;6.27;1.43;;;;;;;;;;4975910;28;20049;-76
2022/06/15 10:51:12;;;;;;;3.55;1.33;;;;;;;;;;4976120;28;20720;-78
2022/06/15 10:54:12;;;;;;;2.53;1.30;;;;;;;;;;4975677;28;20034;-76
2022/06/15 11:02:44;;;;;;;2.78;1.30;;;;;;;;;;4975895;28;20045;-76
2022/06/15 11:05:09;;;;;;;5.28;1.40;;;;;;;;;;4975356;28;20034;-76
2022/06/15 11:07:44;;;;;;;4.17;1.43;;;;;;;;;;4958172;28;20042;-75
2022/06/15 11:10:28;;;;;;;4.50;1.35;;;;;;;;;;4975720;28;20030;-77
2022/06/15 11:12:58;;;;;;;7.28;1.50;;;;;;;;;;4974680;28;20082;-77
2022/06/15 11:18:39;;;;;;;6.10;1.63;;;;;;;;;;4975680;28;20041;-76
2022/06/15 11:21:39;;;;;;;3.10;1.33;;;;;;;;;;4975450;28;20029;-76
2022/06/15 11:24:13;;;;;;;2.90;1.30;;;;;;;;;;4967835;28;20496;-76
2022/06/15 11:26:54;;;;;;;;;;;;;;;;;;4975722;28;20035;-76
2022/06/15 11:29:36;;;;;;;4.57;1.40;;;;;;;;;;4975016;28;19910;-77
2022/06/15 11:32:10;;;;;;;3.40;1.50;;;;;;;;;;4974951;28;20082;-76
2022/06/15 11:34:42;;;;;;;4.70;1.40;;;;;;;;;;4975191;28;20484;-76
2022/06/15 11:37:17;;;;;;;3.53;1.35;;;;;;;;;;4975217;28;20114;-77
2022/06/15 11:40:05;;;;;;;3.00;1.50;;;;;;;;;;4974819;28;20579;-76
2022/06/15 11:42:30;;;;;;;2.20;1.30;;;;;;;;;;4974038;28;20173;-75
2022/06/15 11:44:56;;;;;;;5.35;1.50;;;;;;;;;;4974745;28;20106;-76
2022/06/15 11:47:47;;;;;;;2.17;1.30;;;;;;;;;;4974877;28;20480;-77
2022/06/15 11:50:32;;;;;;;2.35;1.40;;;;;;;;;;4975011;28;20089;-76
2022/06/15 11:53:06;;;;;;;3.33;1.48;;;;;;;;;;4975071;28;20038;-76
2022/06/15 11:55:41;;;;;;;5.22;1.40;;;;;;;;;;4975042;28;20046;-76
2022/06/15 11:58:21;;;;;;;5.35;1.50;;;;;;;;;;4957229;28;20082;-75
2022/06/15 12:01:14;;;;;;;4.20;1.50;;;;;;;;;;4957126;28;20488;-76
2022/06/15 12:04:01;;;;;;;2.65;1.40;;;;;;;;;;4974819;28;20051;-76
2022/06/15 12:06:30;;;;;;;3.78;1.40;;;;;;;;;;4974655;28;20046;-75
2022/06/15 12:09:10;;;;;;;5.50;1.30;;;;;;;;;;4974257;28;20034;-76
2022/06/15 12:15:12;;;;;;;4.40;1.60;;;;;;;;;;4974679;28;20440;-76
2022/06/15 12:18:03;;;;;;;3.40;1.25;;;;;;;;;;4956955;28;20033;-75
2022/06/15 12:20:44;;;;;;;2.60;1.35;;;;;;;;;;4974368;28;20111;-76
2022/06/15 12:23:20;;;;;;;3.00;1.60;;;;;;;;;;4956470;28;20115;-75
2022/06/15 12:26:07;;;;;;;3.40;1.40;;;;;;;;;;4974358;28;20027;-77
2022/06/15 12:29:01;;;;;;;4.53;1.25;;;;;;;;;;4956880;28;20030;-76
2022/06/15 12:31:32;;;;;;;4.95;1.20;;;;;;;;;;4974560;28;20158;-76
2022/06/15 12:34:06;;;;;;;2.83;1.60;;;;;;;;;;4974188;28;20023;-75
2022/06/15 12:36:34;;;;;;;;;;;;;;;;;;4974887;28;20042;-76
2022/06/15 12:39:21;;;;;;;2.20;1.30;;;;;;;;;;4974303;28;20011;-76
2022/06/15 12:44:56;;;;;;;2.65;1.48;;;;;;;;;;4974339;28;20033;-75
2022/06/15 12:47:25;;;;;;;3.33;1.30;;;;;;;;;;4974078;28;20031;-76
2022/06/15 12:50:18;;;;;;;3.47;1.42;;;;;;;;;;4973978;28;20019;-76
2022/06/15 12:52:58;;;;;;;2.17;1.10;;;;;;;;;;4973818;28;20030;-75
2022/06/15 12:55:58;;;;;;;4.57;1.60;;;;;;;;;;4974026;28;20027;-76
2022/06/15 12:58:51;;;;;;;2.80;1.30;;;;;;;;;;4956659;28;20042;-76
2022/06/15 13:01:21;;;;;;;10.82;1.60;;;;;;;;;;4974060;28;20566;-75
2022/06/15 13:03:58;;;;;;;5.97;1.70;;;;;;;;;;4956546;28;20031;-77
2022/06/15 13:06:31;;;;;;;3.35;1.73;;;;;;;;;;4973959;28;20063;-76
2022/06/15 13:09:20;;;;;;;4.03;1.60;;;;;;;;;;4956795;28;20399;-76
2022/06/15 13:11:47;;;;;;;3.47;1.50;;;;;;;;;;4956499;28;20114;-77
2022/06/15 13:14:16;;;;;;;2.35;1.58;;;;;;;;;;4973757;28;20539;-77
2022/06/15 13:16:56;;;;;;;4.78;1.33;;;;;;;;;;4956552;28;20484;-77
2022/06/15 13:19:34;;;;;;;5.50;1.58;;;;;;;;;;4956686;28;20100;-76
2022/06/15 13:22:09;;;;;;;2.63;1.33;;;;;;;;;;4974455;28;20393;-76
2022/06/15 13:24:56;;;;;;;2.22;1.30;;;;;;;;;;4973571;28;20384;-77
2022/06/15 13:27:29;;;;;;;2.47;1.10;;;;;;;;;;4973784;28;20555;-77
2022/06/15 13:30:25;;;;;;;3.38;1.48;;;;;;;;;;4973628;28;20117;-76
2022/06/15 13:33:11;;;;;;;5.32;1.38;;;;;;;;;;4973546;28;20030;-76
2022/06/15 13:36:07;;;;;;;5.88;1.40;;;;;;;;;;4973957;28;20089;-76
2022/06/15 13:38:34;;;;;;;3.38;1.48;;;;;;;;;;4976912;28;20025;-76
2022/06/15 13:41:00;;;;;;;4.57;1.70;;;;;;;;;;4977298;28;20089;-76
2022/06/15 13:43:49;;;;;;;4.18;1.45;;;;;;;;;;4959642;28;20035;-76
2022/06/15 13:46:26;;;;;;;2.78;1.30;;;;;;;;;;4977065;28;20031;-76
2022/06/15 13:49:06;;;;;;;6.22;1.42;;;;;;;;;;4976893;28;20058;-75
2022/06/15 13:51:43;;;;;;;3.97;1.50;;;;;;;;;;4977185;28;20086;-77
2022/06/15 13:54:26;;;;;;;4.70;1.38;;;;;;;;;;4976652;28;20019;-76
2022/06/15 13:57:00;;;;;;;;;;;;;;;;;;4977339;28;20441;-76
2022/06/15 13:59:40;;;;;;;4.63;1.30;;;;;;;;;;4976948;28;20409;-76
2022/06/15 14:02:30;;;;;;;2.83;1.27;;;;;;;;;;4977021;28;20392;-76
2022/06/15 14:05:21;;;;;;;2.40;1.30;;;;;;;;;;4977227;28;20365;-77
2022/06/15 14:08:12;;;;;;;3.30;1.30;;;;;;;;;;4977422;28;20023;-76
2022/06/15 14:11:00;;;;;;;1.77;1.40;;;;;;;;;;4974259;28;20043;-75
2022/06/15 14:13:36;;;;;;;3.35;1.27;;;;;;;;;;4976735;28;20154;-75
2022/06/15 14:16:16;;;;;;;2.70;1.30;;;;;;;;;;4959193;28;20026;-77
2022/06/15 14:18:57;;;;;;;2.60;1.40;;;;;;;;;;4976513;28;20483;-77
2022/06/15 14:21:31;;;;;;;2.35;1.40;;;;;;;;;;4976379;28;20029;-76
2022/06/15 14:23:58;;;;;;;5.32;1.65;;;;;;;;;;4976301;28;20031;-75
2022/06/15 14:26:27;;;;;;;5.05;1.50;;;;;;;;;;4976382;28;20073;-76
2022/06/15 14:29:03;;;;;;;1.90;1.38;;;;;;;;;;4976273;28;20022;-77
2022/06/15 14:31:32;;;;;;;4.63;1.60;;;;;;;;;;4958891;28;20074;-77
2022/06/15 14:34:03;;;;;;;3.03;1.40;;;;;;;;;;4976267;28;20543;-77
2022/06/15 14:36:29;;;;;;;5.47;1.63;;;;;;;;;;4976808;28;20034;-76
2022/06/15 14:39:06;;;;;;;4.65;1.30;;;;;;;;;;4976434;28;20027;-78
2022/06/15 14:41:33;;;;;;;6.07;1.50;;;;;;;;;;4976295;28;20038;-76
2022/06/15 14:43:59;;;;;;;1.55;1.35;;;;;;;;;;4976572;28;20491;-76
2022/06/15 14:46:40;;;;;;;2.63;1.20;;;;;;;;;;4975696;28;20035;-76
2022/06/15 14:49:06;;;;;;;5.70;1.45;;;;;;;;;;4958665;28;20023;-76
2022/06/15 14:51:31;;;;;;;4.22;1.58;;;;;;;;;;4976257;28;20069;-76
2022/06/15 14:54:19;;;;;;;3.75;1.40;;;;;;;;;;4975744;28;20116;-76
2022/06/15 14:56:47;;;;;;;2.40;1.30;;;;;;;;;;4975990;28;20031;-76
2022/06/15 14:59:16;;;;;;;2.63;1.42;;;;;;;;;;4975962;28;20114;-76
2022/06/15 15:02:06;;;;;;;1.75;1.30;;;;;;;;;;4958318;28;20033;-75
2022/06/15 15:04:34;;;;;;;1.92;1.38;;;;;;;;;;5084492;23;20050;-76
2022/06/15 15:10:20;;;;;;;10.30;1.98;;;;;;;;;;5015010;28;20032;-76
2022/06/15 15:12:46;;;;;;;4.53;1.58;;;;;;;;;;5013098;28;20121;-76
2022/06/15 15:15:12;;;;;;;2.22;1.33;;;;;;;;;;5014653;28;20510;-77
2022/06/15 15:18:08;;;;;;;4.40;1.40;;;;;;;;;;5014232;28;20040;-76
2022/06/15 15:20:40;;;;;;;3.63;1.30;;;;;;;;;;5014021;28;20077;-76
2022/06/15 15:23:06;;;;;;;7.03;1.45;;;;;;;;;;5014018;28;20025;-80
2022/06/15 15:25:37;;;;;;;5.50;1.50;;;;;;;;;;5014725;28;20399;-75
2022/06/15 15:34:11;;;;;;;5.22;1.85;;;;;;;;;;5017824;28;20033;-74
2022/06/15 15:39:31;;;;;;;2.40;1.60;;;;;;;;;;5017614;28;20064;-74
2022/06/15 15:41:57;;;;;;;5.38;1.60;;;;;;;;;;5018147;28;20025;-74
2022/06/15 15:44:22;;;;;;;4.47;1.60;;;;;;;;;;5017612;28;20399;-74
2022/06/15 15:46:48;;;;;;;10.25;1.70;;;;;;;;;;5018679;28;20480;-74